Latest Weather Observations for Lake Grace

IDW60801

Issued at 6:34 pm WST Monday 20 February 2017 (issued every 30 minutes, with the page automatically refreshed every 10 minutes)

About weather observations | Map of weather stations | Latest weather observations for WA | Other Formats
Station Details ID: 010911 Name: LAKE GRACE Lat: -33.10 Lon: 118.46 Height: 286.0 m
Data from the previous 72 hours. | See also: Recent months at Lake Grace
Date/Time
WST
Temp
°C
App
Temp
°C
Dew
Point
°C
Rel
Hum
%
Delta-T
°C
Wind Press
QNH
hPa
Press
MSL
hPa
Rain since
9am
mm
Dir  Spd
km/h
Gust
km/h
Spd
kts
Gust
kts
20/06:30pm 26.9 25.9 12.2 40 8.6 SW 9 15 5 8 1008.4 1007.0 0.0
20/06:00pm 26.5 24.8 12.5 41 8.2 SSW 13 17 7 9 1008.1 1006.7 0.0
20/05:30pm 26.1 24.3 13.2 44 7.6 S 15 22 8 12 1008.4 1007.0 0.0
20/05:00pm 27.0 24.3 13.4 43 8.1 SSW 20 30 11 16 1008.4 1007.0 0.0
20/04:30pm 28.9 26.9 12.8 37 9.6 SSW 15 24 8 13 1008.3 1006.9 0.0
20/04:00pm 28.9 26.3 13.2 38 9.4 SW 19 32 10 17 1008.5 1007.1 0.0
20/03:30pm 29.7 28.8 12.6 35 10.2 WSW 9 22 5 12 1008.9 1007.6 0.0
20/03:00pm 28.9 28.4 12.8 37 9.6 SW 7 15 4 8 1009.2 1007.9 0.0
20/02:30pm 28.3 27.5 13.0 39 9.1 W 9 13 5 7 1009.6 1008.2 0.0
20/02:00pm 27.1 26.8 13.4 42 8.2 SSE 7 15 4 8 1010.4 1009.0 0.0
20/01:30pm 26.6 25.3 12.6 42 8.2 S 11 20 6 11 1010.9 1009.5 0.0
20/01:00pm 26.2 25.5 13.3 45 7.7 SW 9 17 5 9 1011.3 1009.9 0.0
20/12:30pm 25.1 23.9 12.7 46 7.3 SW 11 19 6 10 1011.5 1010.1 0.0
20/12:00pm 24.9 24.3 13.5 49 6.8 SSW 9 13 5 7 1011.9 1010.6 0.0
20/11:30am 24.0 23.0 14.7 56 5.6 SW 13 19 7 10 1012.4 1011.1 0.0
20/11:00am 23.4 22.3 15.2 60 5.0 SSW 15 22 8 12 1012.7 1011.4 0.0
20/10:30am 23.5 23.2 15.5 60 4.9 S 11 19 6 10 1012.9 1011.6 0.0
20/10:00am 22.5 21.3 15.1 63 4.5 S 15 24 8 13 1012.9 1011.6 0.0
20/09:30am 21.9 20.3 15.0 65 4.1 S 17 28 9 15 1013.2 1011.8 0.0
20/09:00am 21.8 20.3 15.4 67 3.9 SSW 17 30 9 16 1013.0 1011.7 0.0
20/08:30am 21.6 20.1 15.4 68 3.7 S 17 24 9 13 1012.9 1011.6 0.0
20/08:00am 21.2 19.8 15.5 70 3.4 S 17 26 9 14 1012.9 1011.6 0.0
20/07:30am 20.1 18.2 15.3 74 2.9 S 19 28 10 15 1012.8 1011.5 0.0
20/07:00am 19.6 18.2 14.4 72 3.1 S 15 26 8 14 1012.7 1011.4 0.0
20/06:30am 19.7 17.9 13.4 67 3.6 SSW 15 24 8 13 1012.4 1011.1 0.0
20/06:00am 19.8 18.8 13.3 66 3.8 SSW 11 19 6 10 1011.9 1010.6 0.0
20/05:30am 19.9 19.5 14.0 69 3.4 SSW 9 15 5 8 1011.4 1010.0 0.0
20/05:00am 20.1 20.0 14.9 72 3.1 SSW 9 17 5 9 1011.2 1009.8 0.0
20/04:30am 19.9 20.3 15.3 75 2.7 S 7 11 4 6 1010.9 1009.5 0.0
20/04:00am 21.0 22.2 14.9 68 3.6 WSW 2 6 1 3 1011.0 1009.6 0.0
20/03:30am 20.7 22.3 14.8 69 3.5 CALM 0 7 0 4 1011.0 1009.6 0.0
20/03:00am 21.3 21.9 15.2 68 3.7 S 6 9 3 5 1011.4 1010.0 0.0
20/02:30am 21.5 23.2 15.3 68 3.7 CALM 0 0 0 0 1011.6 1010.2 0.0
20/02:00am 22.7 23.1 15.3 63 4.5 WSW 7 13 4 7 1011.7 1010.4 0.0
20/01:30am 23.5 23.6 14.5 57 5.4 WNW 7 11 4 6 1011.6 1010.2 0.0
20/01:00am 22.9 23.0 14.5 59 5.0 N 7 11 4 6 1011.7 1010.4 0.0
20/12:30am 24.4 23.7 14.2 53 6.1 NNW 11 17 6 9 1012.2 1010.9 0.0
20/12:00am 23.7 22.5 14.1 55 5.7 NNW 13 17 7 9 1012.2 1010.9 0.0
 
Date/Time
WST
Temp
°C
App
Temp
°C
Dew
Point
°C
Rel
Hum
%
Delta-T
°C
Wind Press
QNH
hPa
Press
MSL
hPa
Rain since
9am
mm
Dir  Spd
km/h
Gust
km/h
Spd
kts
Gust
kts
19/11:30pm 24.7 23.8 13.6 50 6.6 N 11 13 6 7 1011.8 1010.5 0.0
19/11:00pm 25.3 24.7 13.5 48 7.0 N 9 11 5 6 1011.9 1010.6 0.0
19/10:30pm 25.8 24.8 13.3 46 7.4 NNE 11 13 6 7 1012.0 1010.7 0.0
19/10:00pm 26.5 25.3 12.9 43 8.0 NNE 11 13 6 7 1012.3 1011.0 0.0
19/09:30pm 27.2 25.9 12.4 40 8.7 NE 11 15 6 8 1012.6 1011.3 0.0
19/09:00pm 28.0 26.7 12.4 38 9.2 NE 11 15 6 8 1012.8 1011.5 0.0
19/08:30pm 28.3 26.9 12.2 37 9.5 NNE 11 15 6 8 1012.7 1011.4 0.0
19/08:00pm 28.0 27.8 13.5 41 8.7 NNE 7 9 4 5 1012.7 1011.4 0.0
19/07:30pm 28.5 28.2 13.2 39 9.2 NNE 7 9 4 5 1012.8 1011.5 0.0
19/07:00pm 30.1 29.2 12.5 34 10.5 NNE 9 13 5 7 1012.6 1011.3 0.0
19/06:30pm 32.1 30.7 12.3 29 11.9 N 11 15 6 8 1012.4 1011.1 0.0
19/06:00pm 33.3 31.2 11.2 26 13.1 NNW 13 19 7 10 1012.4 1011.1 0.0
19/05:30pm 33.7 31.4 10.3 24 13.7 NNW 13 19 7 10 1012.4 1011.1 0.0
19/05:00pm 33.9 31.5 9.9 23 14.0 NNW 13 19 7 10 1012.5 1011.2 0.0
19/04:30pm 34.2 31.4 10.1 23 14.1 NW 15 20 8 11 1012.8 1011.5 0.0
19/04:00pm 34.1 30.4 10.0 23 14.0 N 20 33 11 18 1013.0 1011.7 0.0
19/03:30pm 33.5 30.2 9.5 23 13.8 N 17 28 9 15 1013.5 1012.1 0.0
19/03:00pm 33.2 29.8 9.3 23 13.7 N 17 28 9 15 1013.8 1012.4 0.0
19/02:30pm 33.0 29.2 9.1 23 13.7 N 19 30 10 16 1014.2 1012.8 0.0
19/02:00pm 33.2 30.0 8.6 22 14.0 NNW 15 33 8 18 1014.6 1013.2 0.0
19/01:30pm 32.6 29.5 8.8 23 13.5 NNW 15 22 8 12 1015.0 1013.7 0.0
19/01:00pm 31.9 28.4 8.8 24 13.1 N 17 26 9 14 1015.5 1014.2 0.0
19/12:30pm 31.3 27.5 8.9 25 12.7 NNE 19 28 10 15 1015.8 1014.5 0.0
19/12:00pm 30.4 26.4 8.2 25 12.4 NNW 19 28 10 15 1016.2 1014.9 0.0
19/11:30am 29.8 25.6 8.2 26 12.0 N 20 28 11 15 1016.9 1015.5 0.0
19/11:00am 28.7 24.0 7.9 27 11.4 N 22 35 12 19 1017.4 1016.0 0.0
19/10:30am 26.9 22.0 8.4 31 10.2 N 24 35 13 19 1017.7 1016.3 0.0
19/10:00am 26.6 21.7 8.6 32 9.9 N 24 33 13 18 1018.1 1016.8 0.0
19/09:30am 25.3 20.5 8.7 35 9.1 N 24 35 13 19 1018.4 1017.1 0.0
19/09:00am 24.0 19.9 8.8 38 8.3 N 20 35 11 19 1018.8 1017.5 0.0
19/08:30am 23.0 19.1 9.4 42 7.4 N 20 35 11 19 1019.0 1017.7 0.0
19/08:00am 20.9 18.3 10.7 52 5.6 NNE 15 24 8 13 1019.4 1018.1 0.0
19/07:30am 19.4 16.7 10.4 56 4.9 NNE 15 26 8 14 1019.5 1018.2 0.0
19/07:00am 17.5 16.6 11.5 68 3.3 N 7 13 4 7 1019.6 1018.3 0.0
19/06:30am 15.7 14.8 11.5 76 2.3 NNE 7 9 4 5 1019.3 1018.0 0.0
19/06:00am 15.2 13.5 11.2 77 2.2 NE 11 17 6 9 1019.0 1017.7 0.0
19/05:30am 15.1 13.0 11.3 78 2.1 NE 13 20 7 11 1018.8 1017.5 0.0
19/05:00am 14.9 14.2 11.3 79 1.9 NE 6 11 3 6 1018.9 1017.6 0.0
19/04:30am 15.0 14.2 11.6 80 1.9 ENE 7 11 4 6 1019.0 1017.7 0.0
19/04:00am 15.3 14.5 11.7 79 2.0 ENE 7 13 4 7 1019.0 1017.7 0.0
19/03:30am 15.6 15.0 11.8 78 2.1 E 6 11 3 6 1018.8 1017.5 0.0
19/03:00am 15.8 15.0 11.8 77 2.2 SE 7 15 4 8 1019.2 1017.9 0.0
19/02:30am 15.9 14.5 12.1 78 2.1 ESE 11 17 6 9 1019.2 1017.9 0.0
19/02:00am 16.0 14.6 12.2 78 2.1 ESE 11 19 6 10 1019.5 1018.2 0.0
19/01:30am 16.2 14.4 12.2 77 2.2 ESE 13 22 7 12 1019.7 1018.4 0.0
19/01:00am 16.4 14.3 12.4 77 2.2 E 15 28 8 15 1020.0 1018.7 0.0
19/12:30am 16.6 14.9 12.6 77 2.2 E 13 24 7 13 1020.3 1019.0 0.0
19/12:00am 16.8 14.7 12.5 76 2.4 ESE 15 22 8 12 1020.7 1019.3 0.0
 
Date/Time
WST
Temp
°C
App
Temp
°C
Dew
Point
°C
Rel
Hum
%
Delta-T
°C
Wind Press
QNH
hPa
Press
MSL
hPa
Rain since
9am
mm
Dir  Spd
km/h
Gust
km/h
Spd
kts
Gust
kts
18/11:30pm 17.2 14.8 12.7 75 2.5 ESE 17 30 9 16 1020.8 1019.4 0.0
18/11:00pm 17.6 14.8 12.7 73 2.8 E 19 30 10 16 1020.8 1019.4 0.0
18/10:30pm 18.0 15.1 12.9 72 2.9 ESE 20 33 11 18 1021.2 1019.9 0.0
18/10:00pm 18.7 15.9 13.3 71 3.1 ESE 20 35 11 19 1021.3 1020.0 0.0
18/09:30pm 19.3 16.6 13.5 69 3.3 ESE 20 35 11 19 1021.3 1020.0 0.0
18/09:00pm 20.5 18.0 13.5 64 4.1 ESE 19 33 10 18 1021.4 1020.1 0.0
18/08:30pm 21.6 18.6 12.5 56 5.2 ESE 20 28 11 15 1021.3 1020.0 0.0
18/08:00pm 23.0 19.8 10.1 44 7.1 ESE 17 26 9 14 1021.1 1019.8 0.0
18/07:30pm 23.7 21.1 9.3 40 7.9 ESE 13 22 7 12 1021.0 1019.7 0.0
18/07:00pm 24.6 21.5 7.3 33 9.2 ESE 13 20 7 11 1020.8 1019.4 0.0
18/06:30pm 26.1 22.0 6.2 28 10.5 ESE 17 24 9 13 1020.6 1019.2 0.0
18/06:00pm 26.9 22.2 5.2 25 11.2 ESE 19 30 10 16 1020.4 1019.1 0.0
18/05:30pm 27.5 22.7 4.5 23 11.8 ESE 19 26 10 14 1020.2 1018.9 0.0
18/05:00pm 27.8 22.7 4.2 22 12.1 ESE 20 32 11 17 1020.2 1018.9 0.0
18/04:30pm 28.2 23.2 3.8 21 12.5 E 19 32 10 17 1020.2 1018.9 0.0
18/04:00pm 28.2 23.0 3.8 21 12.4 E 20 32 11 17 1020.4 1019.1 0.0
18/03:30pm 27.8 22.9 4.2 22 12.1 E 19 30 10 16 1020.6 1019.2 0.0
18/03:00pm 28.1 24.0 6.2 25 11.6 E 17 28 9 15 1020.8 1019.4 0.0
18/02:30pm 27.7 23.4 5.3 24 11.7 E 17 28 9 15 1021.1 1019.8 0.0
18/02:00pm 27.4 23.2 5.6 25 11.4 E 17 32 9 17 1021.4 1020.1 0.0
18/01:30pm 26.4 22.0 6.4 28 10.6 E 19 26 10 14 1021.8 1020.5 0.0
18/01:00pm 26.3 22.1 8.3 32 9.8 E 20 32 11 17 1022.2 1020.9 0.0
18/12:30pm 25.5 21.8 9.3 36 9.0 E 19 30 10 16 1022.4 1021.1 0.0
18/12:00pm 24.2 20.6 9.8 40 8.0 E 19 32 10 17 1022.7 1021.4 0.0
18/11:30am 23.9 20.4 10.9 44 7.3 E 20 30 11 16 1023.1 1021.8 0.0
18/11:00am 23.4 20.2 11.8 48 6.6 ENE 20 30 11 16 1023.4 1022.1 0.0
18/10:30am 22.2 19.3 12.2 53 5.7 ENE 19 32 10 17 1023.7 1022.4 0.0
18/10:00am 21.4 18.4 12.0 55 5.3 E 19 32 10 17 1023.9 1022.6 0.0
18/09:30am 19.9 16.6 11.7 59 4.6 ENE 20 32 11 17 1024.3 1023.0 0.0
18/09:00am 18.3 14.1 11.1 63 3.9 ENE 24 35 13 19 1024.5 1023.2 0.0
18/08:30am 17.3 13.9 11.1 67 3.4 ENE 20 30 11 16 1024.7 1023.4 0.0
18/08:00am 15.6 10.9 10.6 72 2.7 ENE 26 35 14 19 1024.7 1023.4 0.0
18/07:30am 14.9 11.3 10.7 76 2.2 E 20 35 11 19 1024.7 1023.4 0.0
18/07:00am 13.9 10.9 10.5 80 1.8 E 17 28 9 15 1024.6 1023.3 0.0
18/06:30am 13.0 10.7 10.5 85 1.3 E 13 22 7 12 1024.5 1023.2 0.0
18/06:00am 12.5 10.1 10.2 86 1.2 ESE 13 20 7 11 1024.1 1022.9 0.0
18/05:30am 12.4 10.4 10.3 87 1.1 E 11 19 6 10 1023.7 1022.4 0.0
18/05:00am 12.5 10.6 10.4 87 1.1 E 11 19 6 10 1023.5 1022.2 0.0
18/04:30am 12.5 10.1 10.2 86 1.2 ESE 13 22 7 12 1023.5 1022.2 0.0
18/04:00am 12.6 10.3 10.3 86 1.2 ESE 13 19 7 10 1023.5 1022.2 0.0
18/03:30am 12.7 10.4 10.4 86 1.2 ESE 13 20 7 11 1023.5 1022.2 0.0
18/03:00am 12.8 10.5 10.3 85 1.3 ESE 13 22 7 12 1023.4 1022.1 0.0
18/02:30am 13.0 10.3 10.4 84 1.4 ESE 15 24 8 13 1023.3 1022.0 0.0
18/02:00am 13.1 11.2 10.5 84 1.4 E 11 17 6 9 1023.4 1022.1 0.0
18/01:30am 13.2 10.9 10.6 84 1.4 ESE 13 24 7 13 1023.3 1022.0 0.0
18/01:00am 13.4 10.4 10.8 84 1.4 ESE 17 26 9 14 1023.5 1022.2 0.0
18/12:30am 13.6 11.0 10.8 83 1.5 ESE 15 22 8 12 1023.7 1022.4 0.0
18/12:00am 13.9 11.0 11.1 83 1.5 ESE 17 24 9 13 1023.7 1022.4 0.0
 
Date/Time
WST
Temp
°C
App
Temp
°C
Dew
Point
°C
Rel
Hum
%
Delta-T
°C
Wind Press
QNH
hPa
Press
MSL
hPa
Rain since
9am
mm
Dir  Spd
km/h
Gust
km/h
Spd
kts
Gust
kts
17/11:30pm 14.2 11.7 11.0 81 1.7 ESE 15 28 8 15 1023.7 1022.4 0.0
17/11:00pm 14.4 11.5 11.0 80 1.8 ESE 17 26 9 14 1023.5 1022.2 0.0
17/10:30pm 14.8 11.3 11.0 78 2.0 ESE 20 33 11 18 1023.5 1022.2 0.0
17/10:00pm 15.2 11.4 11.0 76 2.3 ESE 22 32 12 17 1023.6 1022.3 0.0
17/09:30pm 15.8 12.0 11.2 74 2.5 ESE 22 32 12 17 1023.7 1022.4 0.0
17/09:00pm 16.7 13.3 11.4 71 2.9 ESE 20 30 11 16 1023.4 1022.1 0.0
17/08:30pm 17.6 14.3 11.6 68 3.3 SE 20 30 11 16 1023.1 1021.8 0.0
17/08:00pm 18.6 15.0 11.7 64 3.8 ESE 22 32 12 17 1022.8 1021.5 0.0
17/07:30pm 19.7 16.6 12.2 62 4.2 ESE 20 32 11 17 1022.4 1021.1 0.0
17/07:00pm 21.0 17.9 12.2 57 5.0 ESE 20 33 11 18 1022.0 1020.7 0.0

Other Formats:

Comma delimited format used in spreadsheet applications
http://www.bom.gov.au/fwo/IDW60801/IDW60801.95637.axf

JavaScript Object Notation format (JSON) in row-major order
http://www.bom.gov.au/fwo/IDW60801/IDW60801.95637.json